sensor_id;sensor_type;location;lat;lon;timestamp;temperature;humidity
53146;DHT22;39042;53.150;5.898;2023-07-20T00:01:15;13.40;99.90
53146;DHT22;39042;53.150;5.898;2023-07-20T00:03:41;13.40;99.90
53146;DHT22;39042;53.150;5.898;2023-07-20T00:06:07;13.30;99.90
53146;DHT22;39042;53.150;5.898;2023-07-20T00:08:33;13.30;99.90
53146;DHT22;39042;53.150;5.898;2023-07-20T00:10:59;13.20;99.90
53146;DHT22;39042;53.150;5.898;2023-07-20T00:13:25;13.20;99.90
53146;DHT22;39042;53.150;5.898;2023-07-20T00:15:51;13.10;99.90
53146;DHT22;39042;53.150;5.898;2023-07-20T00:18:17;13.10;99.90
53146;DHT22;39042;53.150;5.898;2023-07-20T00:20:43;13.00;99.90
53146;DHT22;39042;53.150;5.898;2023-07-20T00:23:09;13.00;99.90
53146;DHT22;39042;53.150;5.898;2023-07-20T00:25:35;12.90;99.90
53146;DHT22;39042;53.150;5.898;2023-07-20T00:28:02;12.80;99.90
53146;DHT22;39042;53.150;5.898;2023-07-20T00:30:27;12.70;99.90
53146;DHT22;39042;53.150;5.898;2023-07-20T00:32:53;12.70;99.90
53146;DHT22;39042;53.150;5.898;2023-07-20T00:35:19;12.60;99.90
53146;DHT22;39042;53.150;5.898;2023-07-20T00:37:45;12.50;99.90
53146;DHT22;39042;53.150;5.898;2023-07-20T00:40:11;12.50;99.90
53146;DHT22;39042;53.150;5.898;2023-07-20T00:42:37;12.40;99.90
53146;DHT22;39042;53.150;5.898;2023-07-20T00:45:03;12.30;99.90
53146;DHT22;39042;53.150;5.898;2023-07-20T00:47:29;12.30;99.90
53146;DHT22;39042;53.150;5.898;2023-07-20T00:49:55;12.20;99.90
53146;DHT22;39042;53.150;5.898;2023-07-20T00:52:22;12.20;99.90
53146;DHT22;39042;53.150;5.898;2023-07-20T00:54:49;12.10;99.90
53146;DHT22;39042;53.150;5.898;2023-07-20T00:57:16;12.10;99.90
53146;DHT22;39042;53.150;5.898;2023-07-20T00:59:43;12.00;99.90
53146;DHT22;39042;53.150;5.898;2023-07-20T01:02:09;12.00;99.90
53146;DHT22;39042;53.150;5.898;2023-07-20T01:04:35;12.00;99.90
53146;DHT22;39042;53.150;5.898;2023-07-20T01:07:17;12.00;99.90
53146;DHT22;39042;53.150;5.898;2023-07-20T01:09:49;11.90;99.90
53146;DHT22;39042;53.150;5.898;2023-07-20T01:12:43;11.80;99.90
53146;DHT22;39042;53.150;5.898;2023-07-20T01:15:09;11.80;99.90
53146;DHT22;39042;53.150;5.898;2023-07-20T01:17:36;11.80;99.90
53146;DHT22;39042;53.150;5.898;2023-07-20T01:20:02;11.70;99.90
53146;DHT22;39042;53.150;5.898;2023-07-20T01:31:17;11.60;99.90
53146;DHT22;39042;53.150;5.898;2023-07-20T01:33:44;11.50;99.90
53146;DHT22;39042;53.150;5.898;2023-07-20T01:36:13;11.50;99.90
53146;DHT22;39042;53.150;5.898;2023-07-20T01:38:40;11.50;99.90
53146;DHT22;39042;53.150;5.898;2023-07-20T01:41:07;11.50;99.90
53146;DHT22;39042;53.150;5.898;2023-07-20T01:43:34;11.40;99.90
53146;DHT22;39042;53.150;5.898;2023-07-20T01:46:00;11.40;99.90
53146;DHT22;39042;53.150;5.898;2023-07-20T01:48:26;11.30;99.90
53146;DHT22;39042;53.150;5.898;2023-07-20T01:50:52;11.20;99.90
53146;DHT22;39042;53.150;5.898;2023-07-20T01:53:19;11.10;99.90
53146;DHT22;39042;53.150;5.898;2023-07-20T01:55:47;11.10;99.90
53146;DHT22;39042;53.150;5.898;2023-07-20T01:58:13;11.00;99.90
53146;DHT22;39042;53.150;5.898;2023-07-20T02:00:39;11.00;99.90
53146;DHT22;39042;53.150;5.898;2023-07-20T02:03:05;10.90;99.90
53146;DHT22;39042;53.150;5.898;2023-07-20T02:05:31;10.90;99.90
53146;DHT22;39042;53.150;5.898;2023-07-20T02:07:57;10.90;99.90
53146;DHT22;39042;53.150;5.898;2023-07-20T02:10:22;10.80;99.90
53146;DHT22;39042;53.150;5.898;2023-07-20T02:12:48;10.80;99.90
53146;DHT22;39042;53.150;5.898;2023-07-20T02:15:15;10.80;99.90
53146;DHT22;39042;53.150;5.898;2023-07-20T02:17:42;10.80;99.90
53146;DHT22;39042;53.150;5.898;2023-07-20T02:20:09;10.80;99.90
53146;DHT22;39042;53.150;5.898;2023-07-20T02:22:39;10.80;99.90
53146;DHT22;39042;53.150;5.898;2023-07-20T02:25:05;10.80;99.90
53146;DHT22;39042;53.150;5.898;2023-07-20T02:27:33;10.70;99.90
53146;DHT22;39042;53.150;5.898;2023-07-20T02:30:00;10.80;99.90
53146;DHT22;39042;53.150;5.898;2023-07-20T02:32:27;10.70;99.90
53146;DHT22;39042;53.150;5.898;2023-07-20T02:34:53;10.70;99.90
53146;DHT22;39042;53.150;5.898;2023-07-20T02:37:19;10.70;99.90
53146;DHT22;39042;53.150;5.898;2023-07-20T02:39:45;10.70;99.90
53146;DHT22;39042;53.150;5.898;2023-07-20T02:42:11;10.70;99.90
53146;DHT22;39042;53.150;5.898;2023-07-20T02:44:37;10.70;99.90
53146;DHT22;39042;53.150;5.898;2023-07-20T02:47:03;10.70;99.90
53146;DHT22;39042;53.150;5.898;2023-07-20T02:49:28;10.70;99.90
53146;DHT22;39042;53.150;5.898;2023-07-20T02:51:54;10.70;99.90
53146;DHT22;39042;53.150;5.898;2023-07-20T02:54:21;10.70;99.90
53146;DHT22;39042;53.150;5.898;2023-07-20T02:56:47;10.60;99.90
53146;DHT22;39042;53.150;5.898;2023-07-20T02:59:13;10.60;99.90
53146;DHT22;39042;53.150;5.898;2023-07-20T03:01:39;10.60;99.90
53146;DHT22;39042;53.150;5.898;2023-07-20T03:04:05;10.60;99.90
53146;DHT22;39042;53.150;5.898;2023-07-20T03:06:31;10.50;99.90
53146;DHT22;39042;53.150;5.898;2023-07-20T03:08:57;10.50;99.90
53146;DHT22;39042;53.150;5.898;2023-07-20T03:11:23;10.50;99.90
53146;DHT22;39042;53.150;5.898;2023-07-20T03:13:49;10.40;99.90
53146;DHT22;39042;53.150;5.898;2023-07-20T03:16:18;10.40;99.90
53146;DHT22;39042;53.150;5.898;2023-07-20T03:18:44;10.40;99.90
53146;DHT22;39042;53.150;5.898;2023-07-20T03:21:11;10.30;99.90
53146;DHT22;39042;53.150;5.898;2023-07-20T03:23:40;10.30;99.90
53146;DHT22;39042;53.150;5.898;2023-07-20T03:26:07;10.20;99.90
53146;DHT22;39042;53.150;5.898;2023-07-20T03:28:37;10.20;99.90
53146;DHT22;39042;53.150;5.898;2023-07-20T03:31:04;10.20;99.90
53146;DHT22;39042;53.150;5.898;2023-07-20T03:33:34;10.30;99.90
53146;DHT22;39042;53.150;5.898;2023-07-20T03:36:00;10.30;99.90
53146;DHT22;39042;53.150;5.898;2023-07-20T03:38:27;10.30;99.90
53146;DHT22;39042;53.150;5.898;2023-07-20T03:40:55;10.30;99.90
53146;DHT22;39042;53.150;5.898;2023-07-20T03:43:22;10.40;99.90
53146;DHT22;39042;53.150;5.898;2023-07-20T03:45:49;10.50;99.90
53146;DHT22;39042;53.150;5.898;2023-07-20T03:48:17;10.50;99.90
53146;DHT22;39042;53.150;5.898;2023-07-20T03:50:47;10.50;99.90
53146;DHT22;39042;53.150;5.898;2023-07-20T03:53:14;10.60;99.90
53146;DHT22;39042;53.150;5.898;2023-07-20T03:55:41;10.60;99.90
53146;DHT22;39042;53.150;5.898;2023-07-20T03:58:09;10.60;99.90
53146;DHT22;39042;53.150;5.898;2023-07-20T04:00:35;10.70;99.90
53146;DHT22;39042;53.150;5.898;2023-07-20T04:03:01;10.60;99.90
53146;DHT22;39042;53.150;5.898;2023-07-20T04:05:27;10.60;99.90
53146;DHT22;39042;53.150;5.898;2023-07-20T04:07:53;10.60;99.90
53146;DHT22;39042;53.150;5.898;2023-07-20T04:10:19;10.60;99.90
53146;DHT22;39042;53.150;5.898;2023-07-20T04:12:45;10.60;99.90
53146;DHT22;39042;53.150;5.898;2023-07-20T04:15:13;10.70;99.90
53146;DHT22;39042;53.150;5.898;2023-07-20T04:17:40;10.90;99.90
53146;DHT22;39042;53.150;5.898;2023-07-20T04:20:07;11.40;99.90
53146;DHT22;39042;53.150;5.898;2023-07-20T04:22:33;11.90;99.90
53146;DHT22;39042;53.150;5.898;2023-07-20T04:24:59;12.50;99.90
53146;DHT22;39042;53.150;5.898;2023-07-20T04:27:25;12.90;99.90
53146;DHT22;39042;53.150;5.898;2023-07-20T04:29:51;12.90;99.90
53146;DHT22;39042;53.150;5.898;2023-07-20T04:32:17;12.90;99.90
53146;DHT22;39042;53.150;5.898;2023-07-20T04:34:43;13.00;99.90
53146;DHT22;39042;53.150;5.898;2023-07-20T04:37:09;13.10;99.90
53146;DHT22;39042;53.150;5.898;2023-07-20T04:39:35;13.10;99.90
53146;DHT22;39042;53.150;5.898;2023-07-20T04:42:06;13.20;99.90
53146;DHT22;39042;53.150;5.898;2023-07-20T04:44:31;13.20;99.90
53146;DHT22;39042;53.150;5.898;2023-07-20T04:46:58;13.30;99.90
53146;DHT22;39042;53.150;5.898;2023-07-20T04:49:24;13.20;99.90
53146;DHT22;39042;53.150;5.898;2023-07-20T04:51:50;13.20;99.90
53146;DHT22;39042;53.150;5.898;2023-07-20T04:54:17;13.20;99.90
53146;DHT22;39042;53.150;5.898;2023-07-20T04:56:45;13.20;99.90
53146;DHT22;39042;53.150;5.898;2023-07-20T04:59:12;13.20;99.90
53146;DHT22;39042;53.150;5.898;2023-07-20T05:01:38;13.30;99.90
53146;DHT22;39042;53.150;5.898;2023-07-20T05:04:05;13.30;99.90
53146;DHT22;39042;53.150;5.898;2023-07-20T05:06:30;13.40;99.90
53146;DHT22;39042;53.150;5.898;2023-07-20T05:08:56;13.50;99.90
53146;DHT22;39042;53.150;5.898;2023-07-20T05:11:23;13.50;99.90
53146;DHT22;39042;53.150;5.898;2023-07-20T05:13:48;13.60;99.90
53146;DHT22;39042;53.150;5.898;2023-07-20T05:16:15;13.80;99.90
53146;DHT22;39042;53.150;5.898;2023-07-20T05:18:40;13.90;99.90
53146;DHT22;39042;53.150;5.898;2023-07-20T05:21:07;14.00;99.90
53146;DHT22;39042;53.150;5.898;2023-07-20T05:23:33;14.20;99.90
53146;DHT22;39042;53.150;5.898;2023-07-20T05:26:01;14.30;99.90
53146;DHT22;39042;53.150;5.898;2023-07-20T05:28:27;14.40;99.90
53146;DHT22;39042;53.150;5.898;2023-07-20T05:30:53;14.40;99.90
53146;DHT22;39042;53.150;5.898;2023-07-20T05:33:20;14.40;99.90
53146;DHT22;39042;53.150;5.898;2023-07-20T05:35:46;14.50;99.90
53146;DHT22;39042;53.150;5.898;2023-07-20T05:38:12;14.50;99.90
53146;DHT22;39042;53.150;5.898;2023-07-20T05:40:40;14.60;99.90
53146;DHT22;39042;53.150;5.898;2023-07-20T05:43:06;14.70;99.90
53146;DHT22;39042;53.150;5.898;2023-07-20T05:45:32;15.00;99.90
53146;DHT22;39042;53.150;5.898;2023-07-20T05:47:57;15.20;99.90
53146;DHT22;39042;53.150;5.898;2023-07-20T05:50:23;15.30;99.90
53146;DHT22;39042;53.150;5.898;2023-07-20T05:52:52;15.50;99.90
53146;DHT22;39042;53.150;5.898;2023-07-20T05:55:18;15.60;99.90
53146;DHT22;39042;53.150;5.898;2023-07-20T05:57:43;15.60;99.90
53146;DHT22;39042;53.150;5.898;2023-07-20T06:00:10;15.60;99.90
53146;DHT22;39042;53.150;5.898;2023-07-20T06:02:38;15.60;99.90
53146;DHT22;39042;53.150;5.898;2023-07-20T06:05:05;15.70;99.90
53146;DHT22;39042;53.150;5.898;2023-07-20T06:07:31;15.70;99.90
53146;DHT22;39042;53.150;5.898;2023-07-20T06:09:57;15.70;99.90
53146;DHT22;39042;53.150;5.898;2023-07-20T06:12:23;15.70;99.90
53146;DHT22;39042;53.150;5.898;2023-07-20T06:14:49;15.80;99.90
53146;DHT22;39042;53.150;5.898;2023-07-20T06:17:15;15.80;99.90
53146;DHT22;39042;53.150;5.898;2023-07-20T06:19:41;15.90;99.90
53146;DHT22;39042;53.150;5.898;2023-07-20T06:22:08;16.00;99.90
53146;DHT22;39042;53.150;5.898;2023-07-20T06:24:33;16.00;99.90
53146;DHT22;39042;53.150;5.898;2023-07-20T06:26:59;16.00;99.90
53146;DHT22;39042;53.150;5.898;2023-07-20T06:29:25;16.10;99.90
53146;DHT22;39042;53.150;5.898;2023-07-20T06:31:51;16.10;99.90
53146;DHT22;39042;53.150;5.898;2023-07-20T06:34:17;16.10;99.90
53146;DHT22;39042;53.150;5.898;2023-07-20T06:36:43;16.20;99.90
53146;DHT22;39042;53.150;5.898;2023-07-20T06:39:08;16.20;99.90
53146;DHT22;39042;53.150;5.898;2023-07-20T06:41:34;16.30;99.90
53146;DHT22;39042;53.150;5.898;2023-07-20T06:44:00;16.30;99.90
53146;DHT22;39042;53.150;5.898;2023-07-20T06:46:26;16.40;99.90
53146;DHT22;39042;53.150;5.898;2023-07-20T06:48:53;16.40;99.90
53146;DHT22;39042;53.150;5.898;2023-07-20T06:51:19;16.50;99.90
53146;DHT22;39042;53.150;5.898;2023-07-20T06:53:45;16.50;99.90
53146;DHT22;39042;53.150;5.898;2023-07-20T06:56:11;16.60;99.90
53146;DHT22;39042;53.150;5.898;2023-07-20T06:58:37;16.60;99.90
53146;DHT22;39042;53.150;5.898;2023-07-20T07:01:08;16.70;99.90
53146;DHT22;39042;53.150;5.898;2023-07-20T07:03:34;16.80;99.90
53146;DHT22;39042;53.150;5.898;2023-07-20T07:06:00;16.90;99.90
53146;DHT22;39042;53.150;5.898;2023-07-20T07:08:26;17.00;99.90
53146;DHT22;39042;53.150;5.898;2023-07-20T07:10:52;17.00;99.90
53146;DHT22;39042;53.150;5.898;2023-07-20T07:13:19;17.10;99.90
53146;DHT22;39042;53.150;5.898;2023-07-20T07:15:44;17.10;99.90
53146;DHT22;39042;53.150;5.898;2023-07-20T07:18:11;17.00;99.90
53146;DHT22;39042;53.150;5.898;2023-07-20T07:20:37;17.00;99.90
53146;DHT22;39042;53.150;5.898;2023-07-20T07:23:03;17.00;99.90
53146;DHT22;39042;53.150;5.898;2023-07-20T07:25:29;17.00;99.90
53146;DHT22;39042;53.150;5.898;2023-07-20T07:27:55;17.00;99.90
53146;DHT22;39042;53.150;5.898;2023-07-20T07:30:22;17.00;99.90
53146;DHT22;39042;53.150;5.898;2023-07-20T07:32:48;17.00;99.90
53146;DHT22;39042;53.150;5.898;2023-07-20T07:35:14;16.90;99.90
53146;DHT22;39042;53.150;5.898;2023-07-20T07:37:40;16.90;99.90
53146;DHT22;39042;53.150;5.898;2023-07-20T07:40:07;17.00;99.90
53146;DHT22;39042;53.150;5.898;2023-07-20T07:42:34;17.00;99.90
53146;DHT22;39042;53.150;5.898;2023-07-20T07:45:00;17.10;99.90
53146;DHT22;39042;53.150;5.898;2023-07-20T07:47:26;17.10;99.90
53146;DHT22;39042;53.150;5.898;2023-07-20T07:49:51;17.20;99.90
53146;DHT22;39042;53.150;5.898;2023-07-20T07:52:17;17.40;99.90
53146;DHT22;39042;53.150;5.898;2023-07-20T07:54:43;17.50;99.90
53146;DHT22;39042;53.150;5.898;2023-07-20T07:57:09;17.70;99.90
53146;DHT22;39042;53.150;5.898;2023-07-20T07:59:35;17.80;99.90
53146;DHT22;39042;53.150;5.898;2023-07-20T08:02:04;17.90;99.90
53146;DHT22;39042;53.150;5.898;2023-07-20T08:04:31;17.80;99.90
53146;DHT22;39042;53.150;5.898;2023-07-20T08:06:58;17.80;99.90
53146;DHT22;39042;53.150;5.898;2023-07-20T08:09:24;17.90;99.90
53146;DHT22;39042;53.150;5.898;2023-07-20T08:11:51;18.00;99.90
53146;DHT22;39042;53.150;5.898;2023-07-20T08:14:16;18.10;99.90
53146;DHT22;39042;53.150;5.898;2023-07-20T08:16:42;18.20;99.90
53146;DHT22;39042;53.150;5.898;2023-07-20T08:19:08;18.40;99.90
53146;DHT22;39042;53.150;5.898;2023-07-20T08:21:34;18.50;99.90
53146;DHT22;39042;53.150;5.898;2023-07-20T08:24:00;18.50;99.90
53146;DHT22;39042;53.150;5.898;2023-07-20T08:26:26;18.50;99.90
53146;DHT22;39042;53.150;5.898;2023-07-20T08:28:52;18.60;99.90
53146;DHT22;39042;53.150;5.898;2023-07-20T08:31:18;18.70;99.90
53146;DHT22;39042;53.150;5.898;2023-07-20T08:33:44;18.70;99.90
53146;DHT22;39042;53.150;5.898;2023-07-20T08:36:09;18.80;99.90
53146;DHT22;39042;53.150;5.898;2023-07-20T08:38:35;18.90;99.90
53146;DHT22;39042;53.150;5.898;2023-07-20T08:41:01;18.90;99.90
53146;DHT22;39042;53.150;5.898;2023-07-20T08:43:27;18.80;99.90
53146;DHT22;39042;53.150;5.898;2023-07-20T08:45:57;18.70;99.90
53146;DHT22;39042;53.150;5.898;2023-07-20T08:48:24;18.70;99.90
53146;DHT22;39042;53.150;5.898;2023-07-20T08:50:53;18.70;99.90
53146;DHT22;39042;53.150;5.898;2023-07-20T08:53:20;18.70;99.90
53146;DHT22;39042;53.150;5.898;2023-07-20T08:55:49;18.80;99.90
53146;DHT22;39042;53.150;5.898;2023-07-20T08:58:16;19.00;99.90
53146;DHT22;39042;53.150;5.898;2023-07-20T09:00:43;19.10;99.90
53146;DHT22;39042;53.150;5.898;2023-07-20T09:03:11;19.20;99.90
53146;DHT22;39042;53.150;5.898;2023-07-20T09:05:37;19.30;99.90
53146;DHT22;39042;53.150;5.898;2023-07-20T09:08:05;19.30;99.90
53146;DHT22;39042;53.150;5.898;2023-07-20T09:10:31;19.20;99.90
53146;DHT22;39042;53.150;5.898;2023-07-20T09:12:57;19.10;99.90
53146;DHT22;39042;53.150;5.898;2023-07-20T09:15:23;19.10;99.90
53146;DHT22;39042;53.150;5.898;2023-07-20T09:17:50;19.10;99.90
53146;DHT22;39042;53.150;5.898;2023-07-20T09:20:17;19.20;99.90
53146;DHT22;39042;53.150;5.898;2023-07-20T09:22:44;19.30;99.90
53146;DHT22;39042;53.150;5.898;2023-07-20T09:25:15;19.40;99.90
53146;DHT22;39042;53.150;5.898;2023-07-20T09:27:43;19.60;99.90
53146;DHT22;39042;53.150;5.898;2023-07-20T09:30:10;19.70;99.90
53146;DHT22;39042;53.150;5.898;2023-07-20T09:32:49;19.80;99.90
53146;DHT22;39042;53.150;5.898;2023-07-20T09:35:18;20.00;99.90
53146;DHT22;39042;53.150;5.898;2023-07-20T09:37:54;20.00;99.90
53146;DHT22;39042;53.150;5.898;2023-07-20T09:40:20;20.00;99.90
53146;DHT22;39042;53.150;5.898;2023-07-20T09:42:46;19.80;99.90
53146;DHT22;39042;53.150;5.898;2023-07-20T09:45:13;19.70;99.90
53146;DHT22;39042;53.150;5.898;2023-07-20T09:47:39;19.50;99.90
53146;DHT22;39042;53.150;5.898;2023-07-20T09:50:06;19.50;99.90
53146;DHT22;39042;53.150;5.898;2023-07-20T09:52:38;19.60;99.90
53146;DHT22;39042;53.150;5.898;2023-07-20T09:55:07;19.80;99.90
53146;DHT22;39042;53.150;5.898;2023-07-20T09:57:33;19.90;99.90
53146;DHT22;39042;53.150;5.898;2023-07-20T10:00:00;20.00;99.90
53146;DHT22;39042;53.150;5.898;2023-07-20T10:02:32;20.10;99.90
53146;DHT22;39042;53.150;5.898;2023-07-20T10:05:02;20.20;99.90
53146;DHT22;39042;53.150;5.898;2023-07-20T10:07:30;20.30;99.90
53146;DHT22;39042;53.150;5.898;2023-07-20T10:09:56;20.30;99.90
53146;DHT22;39042;53.150;5.898;2023-07-20T10:12:25;20.30;99.90
53146;DHT22;39042;53.150;5.898;2023-07-20T10:15:04;20.20;99.90
53146;DHT22;39042;53.150;5.898;2023-07-20T10:17:35;20.20;99.90
53146;DHT22;39042;53.150;5.898;2023-07-20T10:20:03;20.10;99.90
53146;DHT22;39042;53.150;5.898;2023-07-20T10:22:35;20.00;99.90
53146;DHT22;39042;53.150;5.898;2023-07-20T10:25:02;20.00;99.90
53146;DHT22;39042;53.150;5.898;2023-07-20T10:27:30;20.10;99.90
53146;DHT22;39042;53.150;5.898;2023-07-20T10:29:57;20.10;99.90
53146;DHT22;39042;53.150;5.898;2023-07-20T10:32:24;20.20;99.90
53146;DHT22;39042;53.150;5.898;2023-07-20T10:34:53;20.30;99.90
53146;DHT22;39042;53.150;5.898;2023-07-20T10:40:38;20.30;99.90
53146;DHT22;39042;53.150;5.898;2023-07-20T10:43:06;20.20;99.90
53146;DHT22;39042;53.150;5.898;2023-07-20T10:45:58;20.10;99.90
53146;DHT22;39042;53.150;5.898;2023-07-20T10:48:25;20.10;99.90
53146;DHT22;39042;53.150;5.898;2023-07-20T10:51:14;20.10;99.90
53146;DHT22;39042;53.150;5.898;2023-07-20T10:53:45;20.30;99.90
53146;DHT22;39042;53.150;5.898;2023-07-20T10:56:29;20.50;99.90
53146;DHT22;39042;53.150;5.898;2023-07-20T10:58:59;20.80;99.90
53146;DHT22;39042;53.150;5.898;2023-07-20T11:01:37;20.90;99.90
53146;DHT22;39042;53.150;5.898;2023-07-20T11:04:08;21.00;99.90
53146;DHT22;39042;53.150;5.898;2023-07-20T11:06:34;20.90;99.90
53146;DHT22;39042;53.150;5.898;2023-07-20T11:09:10;20.80;99.90
53146;DHT22;39042;53.150;5.898;2023-07-20T11:11:38;20.80;99.90
53146;DHT22;39042;53.150;5.898;2023-07-20T11:14:06;20.80;99.90
53146;DHT22;39042;53.150;5.898;2023-07-20T11:16:40;20.80;99.90
53146;DHT22;39042;53.150;5.898;2023-07-20T11:19:13;20.70;99.90
53146;DHT22;39042;53.150;5.898;2023-07-20T11:21:42;20.70;99.90
53146;DHT22;39042;53.150;5.898;2023-07-20T11:24:08;20.60;99.90
53146;DHT22;39042;53.150;5.898;2023-07-20T11:26:44;20.50;99.90
53146;DHT22;39042;53.150;5.898;2023-07-20T11:29:10;20.60;99.90
53146;DHT22;39042;53.150;5.898;2023-07-20T11:31:40;20.80;99.90
53146;DHT22;39042;53.150;5.898;2023-07-20T11:34:07;20.90;98.00
53146;DHT22;39042;53.150;5.898;2023-07-20T11:36:33;21.00;98.80
53146;DHT22;39042;53.150;5.898;2023-07-20T11:38:59;21.00;99.70
53146;DHT22;39042;53.150;5.898;2023-07-20T11:41:25;21.00;99.90
53146;DHT22;39042;53.150;5.898;2023-07-20T11:43:53;21.10;99.20
53146;DHT22;39042;53.150;5.898;2023-07-20T11:46:19;21.10;99.60
53146;DHT22;39042;53.150;5.898;2023-07-20T11:48:45;21.20;99.30
53146;DHT22;39042;53.150;5.898;2023-07-20T11:51:15;21.10;98.30
53146;DHT22;39042;53.150;5.898;2023-07-20T11:53:42;21.00;98.40
53146;DHT22;39042;53.150;5.898;2023-07-20T11:56:08;20.90;98.90
53146;DHT22;39042;53.150;5.898;2023-07-20T11:58:34;20.80;98.30
53146;DHT22;39042;53.150;5.898;2023-07-20T12:01:00;20.80;98.40
53146;DHT22;39042;53.150;5.898;2023-07-20T12:03:25;20.90;96.90
53146;DHT22;39042;53.150;5.898;2023-07-20T12:05:52;20.90;98.20
53146;DHT22;39042;53.150;5.898;2023-07-20T12:08:18;21.00;98.10
53146;DHT22;39042;53.150;5.898;2023-07-20T12:10:43;21.00;98.30
53146;DHT22;39042;53.150;5.898;2023-07-20T12:13:09;21.00;98.80
53146;DHT22;39042;53.150;5.898;2023-07-20T12:15:35;20.90;96.40
53146;DHT22;39042;53.150;5.898;2023-07-20T12:18:02;20.80;96.50
53146;DHT22;39042;53.150;5.898;2023-07-20T12:20:33;20.70;97.10
53146;DHT22;39042;53.150;5.898;2023-07-20T12:23:00;20.70;97.80
53146;DHT22;39042;53.150;5.898;2023-07-20T12:25:34;20.80;97.80
53146;DHT22;39042;53.150;5.898;2023-07-20T12:28:00;20.90;97.30
53146;DHT22;39042;53.150;5.898;2023-07-20T12:30:28;21.00;97.60
53146;DHT22;39042;53.150;5.898;2023-07-20T12:32:53;21.10;98.10
53146;DHT22;39042;53.150;5.898;2023-07-20T12:35:19;21.00;97.00
53146;DHT22;39042;53.150;5.898;2023-07-20T12:37:45;20.90;97.50
53146;DHT22;39042;53.150;5.898;2023-07-20T12:40:14;20.80;96.10
53146;DHT22;39042;53.150;5.898;2023-07-20T12:42:40;20.80;95.60
53146;DHT22;39042;53.150;5.898;2023-07-20T12:45:06;20.80;94.80
53146;DHT22;39042;53.150;5.898;2023-07-20T12:47:31;20.80;95.80
53146;DHT22;39042;53.150;5.898;2023-07-20T12:49:57;20.70;95.80
53146;DHT22;39042;53.150;5.898;2023-07-20T12:52:23;20.70;95.80
53146;DHT22;39042;53.150;5.898;2023-07-20T12:54:48;20.60;96.90
53146;DHT22;39042;53.150;5.898;2023-07-20T12:57:14;20.60;97.50
53146;DHT22;39042;53.150;5.898;2023-07-20T12:59:40;20.70;96.70
53146;DHT22;39042;53.150;5.898;2023-07-20T13:02:06;20.70;95.80
53146;DHT22;39042;53.150;5.898;2023-07-20T13:04:31;20.70;95.60
53146;DHT22;39042;53.150;5.898;2023-07-20T13:06:57;20.70;94.00
53146;DHT22;39042;53.150;5.898;2023-07-20T13:09:24;20.60;94.90
53146;DHT22;39042;53.150;5.898;2023-07-20T13:11:50;20.40;94.90
53146;DHT22;39042;53.150;5.898;2023-07-20T13:14:17;20.40;95.50
53146;DHT22;39042;53.150;5.898;2023-07-20T13:16:42;20.40;95.20
53146;DHT22;39042;53.150;5.898;2023-07-20T13:19:08;20.30;94.70
53146;DHT22;39042;53.150;5.898;2023-07-20T13:21:34;20.30;95.00
53146;DHT22;39042;53.150;5.898;2023-07-20T13:24:00;20.40;95.20
53146;DHT22;39042;53.150;5.898;2023-07-20T13:26:25;20.40;95.30
53146;DHT22;39042;53.150;5.898;2023-07-20T13:28:51;20.40;95.40
53146;DHT22;39042;53.150;5.898;2023-07-20T13:31:18;20.40;94.40
53146;DHT22;39042;53.150;5.898;2023-07-20T13:33:43;20.40;95.20
53146;DHT22;39042;53.150;5.898;2023-07-20T13:36:09;20.40;95.60
53146;DHT22;39042;53.150;5.898;2023-07-20T13:38:35;20.50;95.60
53146;DHT22;39042;53.150;5.898;2023-07-20T13:41:00;20.60;95.40
53146;DHT22;39042;53.150;5.898;2023-07-20T13:43:26;20.80;95.70
53146;DHT22;39042;53.150;5.898;2023-07-20T13:45:52;20.90;94.80
53146;DHT22;39042;53.150;5.898;2023-07-20T13:48:18;21.00;95.00
53146;DHT22;39042;53.150;5.898;2023-07-20T13:50:46;20.90;94.40
53146;DHT22;39042;53.150;5.898;2023-07-20T13:53:12;20.80;94.50
53146;DHT22;39042;53.150;5.898;2023-07-20T13:55:38;20.70;94.50
53146;DHT22;39042;53.150;5.898;2023-07-20T13:58:04;20.70;95.30
53146;DHT22;39042;53.150;5.898;2023-07-20T14:00:30;20.80;94.50
53146;DHT22;39042;53.150;5.898;2023-07-20T14:02:58;20.90;94.60
53146;DHT22;39042;53.150;5.898;2023-07-20T14:05:24;21.10;94.50
53146;DHT22;39042;53.150;5.898;2023-07-20T14:07:51;21.10;93.80
53146;DHT22;39042;53.150;5.898;2023-07-20T14:10:16;21.00;94.30
53146;DHT22;39042;53.150;5.898;2023-07-20T14:12:43;20.90;94.00
53146;DHT22;39042;53.150;5.898;2023-07-20T14:15:10;20.90;93.60
53146;DHT22;39042;53.150;5.898;2023-07-20T14:17:36;20.70;94.50
53146;DHT22;39042;53.150;5.898;2023-07-20T14:20:02;20.50;94.80
53146;DHT22;39042;53.150;5.898;2023-07-20T14:22:31;20.50;95.50
53146;DHT22;39042;53.150;5.898;2023-07-20T14:24:56;20.40;95.50
53146;DHT22;39042;53.150;5.898;2023-07-20T14:27:22;20.40;95.20
53146;DHT22;39042;53.150;5.898;2023-07-20T14:29:48;20.30;95.40
53146;DHT22;39042;53.150;5.898;2023-07-20T14:32:14;20.30;96.00
53146;DHT22;39042;53.150;5.898;2023-07-20T14:34:39;20.30;96.10
53146;DHT22;39042;53.150;5.898;2023-07-20T14:37:06;20.40;95.90
53146;DHT22;39042;53.150;5.898;2023-07-20T14:39:32;20.30;95.90
53146;DHT22;39042;53.150;5.898;2023-07-20T14:41:58;20.30;96.70
53146;DHT22;39042;53.150;5.898;2023-07-20T14:44:24;20.20;97.20
53146;DHT22;39042;53.150;5.898;2023-07-20T14:46:50;20.30;97.30
53146;DHT22;39042;53.150;5.898;2023-07-20T14:49:16;20.40;97.10
53146;DHT22;39042;53.150;5.898;2023-07-20T14:51:42;20.40;97.10
53146;DHT22;39042;53.150;5.898;2023-07-20T14:54:12;20.50;97.10
53146;DHT22;39042;53.150;5.898;2023-07-20T14:56:38;20.60;97.10
53146;DHT22;39042;53.150;5.898;2023-07-20T14:59:04;20.50;96.70
53146;DHT22;39042;53.150;5.898;2023-07-20T15:01:31;20.40;96.80
53146;DHT22;39042;53.150;5.898;2023-07-20T15:03:57;20.40;96.90
53146;DHT22;39042;53.150;5.898;2023-07-20T15:06:23;20.40;97.00
53146;DHT22;39042;53.150;5.898;2023-07-20T15:08:49;20.50;96.80
53146;DHT22;39042;53.150;5.898;2023-07-20T15:11:14;20.60;96.10
53146;DHT22;39042;53.150;5.898;2023-07-20T15:13:40;20.70;96.50
53146;DHT22;39042;53.150;5.898;2023-07-20T15:16:08;20.80;96.50
53146;DHT22;39042;53.150;5.898;2023-07-20T15:18:35;20.90;97.20
53146;DHT22;39042;53.150;5.898;2023-07-20T15:21:01;21.00;96.20
53146;DHT22;39042;53.150;5.898;2023-07-20T15:23:26;21.10;95.90
53146;DHT22;39042;53.150;5.898;2023-07-20T15:25:52;21.20;95.70
53146;DHT22;39042;53.150;5.898;2023-07-20T15:28:18;21.20;95.60
53146;DHT22;39042;53.150;5.898;2023-07-20T15:30:44;21.30;95.80
53146;DHT22;39042;53.150;5.898;2023-07-20T15:33:09;21.30;95.70
53146;DHT22;39042;53.150;5.898;2023-07-20T15:35:35;21.40;95.80
53146;DHT22;39042;53.150;5.898;2023-07-20T15:38:01;21.40;95.20
53146;DHT22;39042;53.150;5.898;2023-07-20T15:40:27;21.30;95.50